createdAt,value
2023-04-11T00:00:32.113Z,0.00
2023-04-11T00:01:32.089Z,0.00
2023-04-11T00:02:32.666Z,0.00
2023-04-11T00:03:32.386Z,0.00
2023-04-11T00:04:32.162Z,0.00
2023-04-11T00:05:32.163Z,0.00
2023-04-11T00:06:32.037Z,0.00
2023-04-11T00:07:32.041Z,0.00
2023-04-11T00:08:31.975Z,0.00
2023-04-11T00:09:32.010Z,0.00
2023-04-11T00:10:32.017Z,0.00
2023-04-11T00:11:32.084Z,0.00
2023-04-11T00:12:32.015Z,0.00
2023-04-11T00:13:32.068Z,0.00
2023-04-11T00:14:31.952Z,0.00
2023-04-11T00:15:32.136Z,0.00
2023-04-11T00:16:32.085Z,0.00
2023-04-11T00:17:32.167Z,0.00
2023-04-11T00:18:31.896Z,0.00
2023-04-11T00:19:31.902Z,0.00
2023-04-11T00:20:31.939Z,0.00
2023-04-11T00:21:31.924Z,0.00
2023-04-11T00:22:31.902Z,0.00
2023-04-11T00:23:31.856Z,0.00
2023-04-11T00:24:31.858Z,0.00
2023-04-11T00:25:31.832Z,0.00
2023-04-11T00:26:31.750Z,0.00
2023-04-11T00:27:31.867Z,0.00
2023-04-11T00:28:31.718Z,0.00
2023-04-11T00:29:31.904Z,0.00
2023-04-11T00:30:31.764Z,0.00
2023-04-11T00:31:31.782Z,0.00
2023-04-11T00:32:31.715Z,0.00
2023-04-11T00:33:31.697Z,0.00
2023-04-11T00:34:33.181Z,0.00
2023-04-11T00:35:31.958Z,0.00
2023-04-11T00:36:32.794Z,0.00
2023-04-11T00:37:31.612Z,0.00
2023-04-11T00:38:31.627Z,0.00
2023-04-11T00:39:31.654Z,0.00
2023-04-11T00:40:31.564Z,0.00
2023-04-11T00:41:31.646Z,0.00
2023-04-11T00:42:31.538Z,0.00
2023-04-11T00:43:31.576Z,0.00
2023-04-11T00:44:31.508Z,0.00
2023-04-11T00:45:31.550Z,0.00
2023-04-11T00:46:31.614Z,0.00
2023-04-11T00:47:31.605Z,0.00
2023-04-11T00:48:31.504Z,0.00
2023-04-11T00:49:31.530Z,0.00
2023-04-11T00:50:31.777Z,0.00
2023-04-11T00:51:31.838Z,0.00
2023-04-11T00:52:31.457Z,0.00
2023-04-11T00:53:31.439Z,0.00
2023-04-11T00:54:31.494Z,0.00
2023-04-11T00:55:31.473Z,0.00
2023-04-11T00:56:31.373Z,0.00
2023-04-11T00:57:31.570Z,0.00
2023-04-11T00:58:31.353Z,0.00
2023-04-11T00:59:31.371Z,0.00
2023-04-11T01:00:31.422Z,0.00
2023-04-11T01:01:31.415Z,0.00
2023-04-11T01:02:31.657Z,0.00
2023-04-11T01:03:31.477Z,0.00
2023-04-11T01:04:31.324Z,0.00
2023-04-11T01:05:31.318Z,0.00
2023-04-11T01:06:31.364Z,0.00
2023-04-11T01:07:31.270Z,0.00
2023-04-11T01:08:31.296Z,0.00
2023-04-11T01:09:31.315Z,0.00
2023-04-11T01:10:31.225Z,0.00
2023-04-11T01:11:31.145Z,0.00
2023-04-11T01:12:31.198Z,0.00
2023-04-11T01:13:31.642Z,0.00
2023-04-11T01:14:31.161Z,0.00
2023-04-11T01:15:31.122Z,0.00
2023-04-11T01:16:31.215Z,0.00
2023-04-11T01:17:31.115Z,0.00
2023-04-11T01:18:31.114Z,0.00
2023-04-11T01:19:31.129Z,0.00
2023-04-11T01:20:31.065Z,0.00
2023-04-11T01:21:31.028Z,0.00
2023-04-11T01:22:31.036Z,0.00
2023-04-11T01:23:31.043Z,0.00
2023-04-11T01:24:31.045Z,0.00
2023-04-11T01:25:31.163Z,0.00
2023-04-11T01:26:31.092Z,0.00
2023-04-11T01:27:31.172Z,0.00
2023-04-11T01:28:31.000Z,0.00
2023-04-11T01:29:31.066Z,0.00
2023-04-11T01:30:30.930Z,0.00
2023-04-11T01:31:31.017Z,0.00
2023-04-11T01:32:31.004Z,0.00
2023-04-11T01:33:30.969Z,0.00
2023-04-11T01:34:30.893Z,0.00
2023-04-11T01:35:30.942Z,0.00
2023-04-11T01:36:30.852Z,0.00
2023-04-11T01:37:30.910Z,0.00
2023-04-11T01:38:30.880Z,0.00
2023-04-11T01:39:31.362Z,0.00
2023-04-11T01:40:30.929Z,0.00
2023-04-11T01:41:30.764Z,0.00
2023-04-11T01:42:30.773Z,0.00
2023-04-11T01:43:30.878Z,0.00
2023-04-11T01:44:30.804Z,0.00
2023-04-11T01:45:30.748Z,0.00
2023-04-11T01:46:30.684Z,0.00
2023-04-11T01:47:30.749Z,0.00
2023-04-11T01:48:30.828Z,0.00
2023-04-11T01:49:30.693Z,0.00
2023-04-11T01:50:30.733Z,0.00
2023-04-11T01:51:30.647Z,0.00
2023-04-11T01:52:38.129Z,0.00
2023-04-11T01:53:30.587Z,0.00
2023-04-11T01:54:30.586Z,0.00
2023-04-11T01:55:30.676Z,0.00
2023-04-11T01:56:30.652Z,0.00
2023-04-11T01:57:30.586Z,0.00
2023-04-11T01:58:30.836Z,0.00
2023-04-11T01:59:30.607Z,0.00
2023-04-11T02:00:30.492Z,0.00
2023-04-11T02:01:30.532Z,0.00
2023-04-11T02:02:30.624Z,0.00
2023-04-11T02:03:30.750Z,0.00
2023-04-11T02:04:30.627Z,0.00
2023-04-11T02:05:30.553Z,0.00
2023-04-11T02:06:30.428Z,0.00
2023-04-11T02:07:30.399Z,0.00
2023-04-11T02:08:30.427Z,0.00
2023-04-11T02:09:30.480Z,0.00
2023-04-11T02:10:30.458Z,0.00
2023-04-11T02:11:30.387Z,0.00
2023-04-11T02:12:30.360Z,0.00
2023-04-11T02:13:30.582Z,0.00
2023-04-11T02:14:30.351Z,0.00
2023-04-11T02:15:30.427Z,0.00
2023-04-11T02:16:30.501Z,0.00
2023-04-11T02:17:30.375Z,0.00
2023-04-11T02:18:30.331Z,0.00
2023-04-11T02:19:31.755Z,0.00
2023-04-11T02:20:32.510Z,0.00
2023-04-11T02:21:39.178Z,0.00
2023-04-11T02:22:30.241Z,0.00
2023-04-11T02:23:30.274Z,0.00
2023-04-11T02:24:30.235Z,0.00
2023-04-11T02:25:30.162Z,0.00
2023-04-11T02:26:30.388Z,0.00
2023-04-11T02:27:30.169Z,0.00
2023-04-11T02:28:30.206Z,0.00
2023-04-11T02:29:39.891Z,0.00
2023-04-11T02:30:30.186Z,0.00
2023-04-11T02:31:30.173Z,0.00
2023-04-11T02:32:30.459Z,0.00
2023-04-11T02:33:30.256Z,0.00
2023-04-11T02:34:38.840Z,0.00
2023-04-11T02:35:32.183Z,0.00
2023-04-11T02:36:30.143Z,0.00
2023-04-11T02:37:30.145Z,0.00
2023-04-11T02:38:31.224Z,0.00
2023-04-11T02:39:30.121Z,0.00
2023-04-11T02:40:30.052Z,0.00
2023-04-11T02:41:30.103Z,0.00
2023-04-11T02:42:29.993Z,0.00
2023-04-11T02:43:30.078Z,0.00
2023-04-11T02:44:30.043Z,0.00
2023-04-11T02:45:29.916Z,0.00
2023-04-11T02:46:29.971Z,0.00
2023-04-11T02:47:29.927Z,0.00
2023-04-11T02:48:30.017Z,0.00
2023-04-11T02:49:38.519Z,0.00
2023-04-11T02:50:29.934Z,0.00
2023-04-11T02:51:29.951Z,0.00
2023-04-11T02:52:30.298Z,0.00
2023-04-11T02:53:29.861Z,0.00
2023-04-11T02:54:29.855Z,0.00
2023-04-11T02:55:30.044Z,0.00
2023-04-11T02:56:29.788Z,0.00
2023-04-11T02:57:29.844Z,0.00
2023-04-11T02:58:29.874Z,0.00
2023-04-11T02:59:29.893Z,0.00
2023-04-11T03:00:29.711Z,0.00
2023-04-11T03:01:29.762Z,0.00
2023-04-11T03:02:37.462Z,0.00
2023-04-11T03:03:31.059Z,0.00
2023-04-11T03:04:40.862Z,0.00
2023-04-11T03:05:29.858Z,0.00
2023-04-11T03:06:38.244Z,0.00
2023-04-11T03:07:29.797Z,0.00
2023-04-11T03:08:29.802Z,0.00
2023-04-11T03:09:29.657Z,0.00
2023-04-11T03:10:29.715Z,0.00
2023-04-11T03:11:29.629Z,0.00
2023-04-11T03:12:29.904Z,0.00
2023-04-11T03:13:29.860Z,0.00
2023-04-11T03:14:29.612Z,0.00
2023-04-11T03:15:29.848Z,0.00
2023-04-11T03:16:29.592Z,0.00
2023-04-11T03:17:29.573Z,0.00
2023-04-11T03:18:29.677Z,0.00
2023-04-11T03:19:29.536Z,0.00
2023-04-11T03:20:29.504Z,0.00
2023-04-11T03:21:29.595Z,0.00
2023-04-11T03:22:29.647Z,0.00
2023-04-11T03:23:29.499Z,0.00
2023-04-11T03:24:29.618Z,0.00
2023-04-11T03:25:29.405Z,0.00
2023-04-11T03:26:29.502Z,0.00
2023-04-11T03:27:29.385Z,0.00
2023-04-11T03:28:29.632Z,0.00
2023-04-11T03:29:29.480Z,0.00
2023-04-11T03:30:29.414Z,0.00
2023-04-11T03:31:29.371Z,0.00
2023-04-11T03:32:29.598Z,0.00
2023-04-11T03:33:29.310Z,0.00
2023-04-11T03:34:29.417Z,0.00
2023-04-11T03:35:30.764Z,0.00
2023-04-11T03:36:36.932Z,0.00
2023-04-11T03:37:29.360Z,0.00
2023-04-11T03:38:29.304Z,0.00
2023-04-11T03:39:29.457Z,0.00
2023-04-11T03:40:29.290Z,0.00
2023-04-11T03:41:29.395Z,0.00
2023-04-11T03:42:29.333Z,0.00
2023-04-11T03:43:30.309Z,0.00
2023-04-11T03:44:29.366Z,0.00
2023-04-11T03:45:29.148Z,0.00
2023-04-11T03:46:29.186Z,0.00
2023-04-11T03:47:29.183Z,0.00
2023-04-11T03:48:29.341Z,0.00
2023-04-11T03:49:29.246Z,0.00
2023-04-11T03:50:29.450Z,0.00
2023-04-11T03:51:29.160Z,0.00
2023-04-11T03:52:29.154Z,0.00
2023-04-11T03:53:29.063Z,0.00
2023-04-11T03:54:30.915Z,0.00
2023-04-11T03:55:29.132Z,0.00
2023-04-11T03:56:29.036Z,0.00
2023-04-11T03:57:29.075Z,0.00
2023-04-11T03:58:32.234Z,0.00
2023-04-11T03:59:29.025Z,0.00
2023-04-11T04:00:29.098Z,0.00
2023-04-11T04:01:29.545Z,0.00
2023-04-11T04:02:29.544Z,0.00
2023-04-11T04:03:29.500Z,0.00
2023-04-11T04:04:30.469Z,0.00
2023-04-11T04:05:29.097Z,0.00
2023-04-11T04:06:29.031Z,0.00
2023-04-11T04:07:29.185Z,0.00
2023-04-11T04:08:29.125Z,0.00
2023-04-11T04:09:30.053Z,0.00
2023-04-11T04:10:30.372Z,0.00
2023-04-11T04:11:29.777Z,0.00
2023-04-11T04:12:28.799Z,0.00
2023-04-11T04:13:31.951Z,0.00
2023-04-11T04:14:31.252Z,0.00
2023-04-11T04:15:39.357Z,0.00
2023-04-11T04:16:40.148Z,0.00
2023-04-11T04:17:30.264Z,0.00
2023-04-11T04:18:31.478Z,0.00
2023-04-11T04:19:29.571Z,0.00
2023-04-11T04:20:29.039Z,0.00
2023-04-11T04:21:29.626Z,4.00
2023-04-11T04:22:30.256Z,4.00
2023-04-11T04:23:30.033Z,4.00
2023-04-11T04:24:31.273Z,0.00
2023-04-11T04:25:30.280Z,0.00
2023-04-11T04:26:31.181Z,4.00
2023-04-11T04:27:29.035Z,4.00
2023-04-11T04:29:25.389Z,8.00
2023-04-11T04:30:25.161Z,12.00
2023-04-11T04:31:25.005Z,12.00
2023-04-11T04:32:24.996Z,16.00
2023-04-11T04:33:27.614Z,20.00
2023-04-11T04:34:24.947Z,20.00
2023-04-11T04:35:25.042Z,28.00
2023-04-11T04:36:24.916Z,28.00
2023-04-11T04:37:26.448Z,32.00
2023-04-11T04:38:24.874Z,36.00
2023-04-11T04:39:25.028Z,40.00
2023-04-11T04:40:24.911Z,48.00
2023-04-11T04:41:24.801Z,48.00
2023-04-11T04:42:25.097Z,56.00
2023-04-11T04:43:25.154Z,64.00
2023-04-11T04:44:25.332Z,64.00
2023-04-11T04:45:25.052Z,64.00
2023-04-11T04:46:24.942Z,64.00
2023-04-11T04:47:25.371Z,56.00
2023-04-11T04:48:24.804Z,52.00
2023-04-11T04:49:24.922Z,64.00
2023-04-11T04:50:24.776Z,76.00
2023-04-11T04:51:24.752Z,96.00
2023-04-11T04:52:24.744Z,104.00
2023-04-11T04:53:24.966Z,120.00
2023-04-11T04:54:24.635Z,136.00
2023-04-11T04:55:25.322Z,124.00
2023-04-11T04:56:24.718Z,148.00
2023-04-11T04:57:24.770Z,184.00
2023-04-11T04:58:24.653Z,192.00
2023-04-11T04:59:24.626Z,208.00
2023-04-11T05:00:25.778Z,232.00
2023-04-11T05:01:24.660Z,248.00
2023-04-11T05:02:24.860Z,252.00
2023-04-11T05:03:25.005Z,260.00
2023-04-11T05:04:24.818Z,280.00
2023-04-11T05:05:24.745Z,280.00
2023-04-11T05:06:24.681Z,296.00
2023-04-11T05:07:24.801Z,316.00
2023-04-11T05:08:24.519Z,344.00
2023-04-11T05:09:24.804Z,352.00
2023-04-11T05:10:24.559Z,352.00
2023-04-11T05:11:25.385Z,324.00
2023-04-11T05:12:24.598Z,344.00
2023-04-11T05:13:24.637Z,340.00
2023-04-11T05:14:24.845Z,380.00
2023-04-11T05:15:24.601Z,428.00
2023-04-11T05:16:24.490Z,436.00
2023-04-11T05:17:25.438Z,448.00
2023-04-11T05:18:24.755Z,440.00
2023-04-11T05:19:24.557Z,428.00
2023-04-11T05:20:24.544Z,472.00
2023-04-11T05:21:24.364Z,436.00
2023-04-11T05:22:24.411Z,432.00
2023-04-11T05:23:24.423Z,460.00
2023-04-11T05:24:24.956Z,504.00
2023-04-11T05:25:24.328Z,528.00
2023-04-11T05:26:24.432Z,512.00
2023-04-11T05:27:24.224Z,556.00
2023-04-11T05:28:24.478Z,616.00
2023-04-11T05:29:24.218Z,636.00
2023-04-11T05:30:24.367Z,724.00
2023-04-11T05:31:24.573Z,792.00
2023-04-11T05:32:24.220Z,972.00
2023-04-11T05:33:24.138Z,980.00
2023-04-11T05:34:24.310Z,1144.00
2023-04-11T05:35:24.359Z,1320.00
2023-04-11T05:36:24.111Z,1464.00
2023-04-11T05:37:24.205Z,2072.00
2023-04-11T05:38:24.338Z,2016.00
2023-04-11T05:39:24.276Z,1792.00
2023-04-11T05:40:24.220Z,1692.00
2023-04-11T05:41:24.112Z,1508.00
2023-04-11T05:42:24.138Z,1304.00
2023-04-11T05:43:24.234Z,1488.00
2023-04-11T05:44:24.019Z,1460.00
2023-04-11T05:45:24.809Z,1268.00
2023-04-11T05:46:24.137Z,868.00
2023-04-11T05:47:24.365Z,900.00
2023-04-11T05:48:24.244Z,844.00
2023-04-11T05:49:24.305Z,872.00
2023-04-11T05:50:24.112Z,1032.00
2023-04-11T05:51:24.811Z,980.00
2023-04-11T05:52:23.968Z,856.00
2023-04-11T05:53:23.876Z,756.00
2023-04-11T05:54:23.870Z,956.00
2023-04-11T05:55:24.226Z,936.00
2023-04-11T05:56:24.055Z,948.00
2023-04-11T05:57:24.092Z,1040.00
2023-04-11T05:58:24.214Z,1216.00
2023-04-11T05:59:27.116Z,1692.00
2023-04-11T06:00:23.848Z,2084.00
2023-04-11T06:01:23.807Z,1416.00
2023-04-11T06:02:24.136Z,1116.00
2023-04-11T06:03:23.987Z,1452.00
2023-04-11T06:04:24.892Z,1120.00
2023-04-11T06:05:23.898Z,1400.00
2023-04-11T06:06:24.026Z,1616.00
2023-04-11T06:07:24.728Z,2164.00
2023-04-11T06:08:23.993Z,2264.00
2023-04-11T06:09:24.032Z,2232.00
2023-04-11T06:10:23.659Z,2492.00
2023-04-11T06:11:23.642Z,2132.00
2023-04-11T06:12:23.734Z,1576.00
2023-04-11T06:13:24.000Z,1944.00
2023-04-11T06:14:23.721Z,2632.00
2023-04-11T06:15:23.627Z,2508.00
2023-04-11T06:16:23.889Z,2260.00
2023-04-11T06:17:23.589Z,1256.00
2023-04-11T06:18:23.603Z,988.00
2023-04-11T06:19:23.535Z,1140.00
2023-04-11T06:20:23.818Z,1448.00
2023-04-11T06:21:24.238Z,1812.00
2023-04-11T06:22:23.496Z,1904.00
2023-04-11T06:23:23.715Z,1952.00
2023-04-11T06:24:23.884Z,2492.00
2023-04-11T06:25:23.545Z,2176.00
2023-04-11T06:26:23.567Z,2660.00
2023-04-11T06:27:23.668Z,2640.00
2023-04-11T06:28:23.637Z,2060.00
2023-04-11T06:29:23.394Z,1916.00
2023-04-11T06:30:23.438Z,2096.00
2023-04-11T06:31:23.556Z,1716.00
2023-04-11T06:32:23.361Z,1848.00
2023-04-11T06:33:23.537Z,2392.00
2023-04-11T06:34:23.517Z,2820.00
2023-04-11T06:35:23.703Z,3324.00
2023-04-11T06:36:23.335Z,2836.00
2023-04-11T06:37:23.408Z,2872.00
2023-04-11T06:38:23.380Z,2176.00
2023-04-11T06:39:23.512Z,2312.00
2023-04-11T06:40:23.294Z,2048.00
2023-04-11T06:41:23.267Z,1868.00
2023-04-11T06:42:23.379Z,1928.00
2023-04-11T06:43:23.168Z,1988.00
2023-04-11T06:44:23.379Z,2472.00
2023-04-11T06:45:23.440Z,2896.00
2023-04-11T06:46:23.568Z,3800.00
2023-04-11T06:47:24.037Z,3972.00
2023-04-11T06:48:23.300Z,3460.00
2023-04-11T06:49:23.252Z,1952.00
2023-04-11T06:50:23.312Z,2612.00
2023-04-11T06:51:23.139Z,2820.00
2023-04-11T06:52:23.261Z,2772.00
2023-04-11T06:53:23.084Z,3892.00
2023-04-11T06:54:23.037Z,4040.00
2023-04-11T06:55:23.121Z,2308.00
2023-04-11T06:56:23.401Z,3184.00
2023-04-11T06:57:22.978Z,2764.00
2023-04-11T06:58:23.177Z,2924.00
2023-04-11T06:59:23.897Z,3244.00
2023-04-11T07:00:23.045Z,3188.00
2023-04-11T07:01:23.009Z,4124.00
2023-04-11T07:02:23.329Z,3364.00
2023-04-11T07:03:23.083Z,2716.00
2023-04-11T07:04:23.532Z,2168.00
2023-04-11T07:05:23.101Z,2868.00
2023-04-11T07:06:22.931Z,3304.00
2023-04-11T07:07:22.932Z,3228.00
2023-04-11T07:08:22.885Z,2300.00
2023-04-11T07:09:22.971Z,2704.00
2023-04-11T07:10:22.861Z,2904.00
2023-04-11T07:11:22.888Z,2672.00
2023-04-11T07:12:22.836Z,2868.00
2023-04-11T07:13:22.835Z,3372.00
2023-04-11T07:14:22.783Z,3248.00
2023-04-11T07:15:22.818Z,2824.00
2023-04-11T07:16:22.828Z,2176.00
2023-04-11T07:17:22.879Z,2420.00
2023-04-11T07:18:22.953Z,2880.00
2023-04-11T07:19:23.044Z,3680.00
2023-04-11T07:20:22.803Z,4072.00
2023-04-11T07:21:22.753Z,4252.00
2023-04-11T07:22:23.387Z,3776.00
2023-04-11T07:23:23.797Z,5096.00
2023-04-11T07:24:22.839Z,3396.00
2023-04-11T07:25:22.961Z,4012.00
2023-04-11T07:26:22.581Z,3848.00
2023-04-11T07:27:22.668Z,5464.00
2023-04-11T07:28:22.907Z,3732.00
2023-04-11T07:29:22.550Z,3200.00
2023-04-11T07:30:22.739Z,3772.00
2023-04-11T07:31:22.530Z,3700.00
2023-04-11T07:32:22.557Z,2932.00
2023-04-11T07:33:22.514Z,4040.00
2023-04-11T07:34:22.465Z,2244.00
2023-04-11T07:35:22.887Z,3248.00
2023-04-11T07:36:22.427Z,3544.00
2023-04-11T07:37:22.586Z,2732.00
2023-04-11T07:38:22.500Z,2732.00
2023-04-11T07:39:22.476Z,2740.00
2023-04-11T07:40:22.399Z,2584.00
2023-04-11T07:41:22.369Z,2972.00
2023-04-11T07:42:22.419Z,4996.00
2023-04-11T07:43:22.338Z,4896.00
2023-04-11T07:44:23.815Z,4240.00
2023-04-11T07:45:22.601Z,4324.00
2023-04-11T07:46:22.354Z,4092.00
2023-04-11T07:47:22.424Z,4336.00
2023-04-11T07:48:22.450Z,3344.00
2023-04-11T07:49:22.535Z,3704.00
2023-04-11T07:50:22.319Z,4036.00
2023-04-11T07:51:22.217Z,5644.00
2023-04-11T07:52:22.408Z,4200.00
2023-04-11T07:53:22.707Z,7528.00
2023-04-11T07:54:22.820Z,3412.00
2023-04-11T07:55:22.301Z,4488.00
2023-04-11T07:56:22.263Z,2604.00
2023-04-11T07:57:22.182Z,3288.00
2023-04-11T07:58:22.358Z,7360.00
2023-04-11T07:59:22.430Z,4100.00
2023-04-11T08:00:22.332Z,6428.00
2023-04-11T08:01:22.176Z,7172.00
2023-04-11T08:02:22.430Z,9184.00
2023-04-11T08:03:22.269Z,8064.00
2023-04-11T08:04:22.348Z,5880.00
2023-04-11T08:05:22.234Z,6848.00
2023-04-11T08:06:21.988Z,6948.00
2023-04-11T08:07:22.088Z,5984.00
2023-04-11T08:08:22.398Z,3824.00
2023-04-11T08:09:21.918Z,5420.00
2023-04-11T08:10:23.002Z,4524.00
2023-04-11T08:11:22.079Z,3848.00
2023-04-11T08:12:22.315Z,4680.00
2023-04-11T08:13:21.921Z,6480.00
2023-04-11T08:14:22.397Z,6916.00
2023-04-11T08:15:22.075Z,4644.00
2023-04-11T08:16:21.963Z,5032.00
2023-04-11T08:17:28.320Z,7484.00
2023-04-11T08:18:22.899Z,3928.00
2023-04-11T08:19:22.013Z,2824.00
2023-04-11T08:20:24.704Z,2900.00
2023-04-11T08:21:21.848Z,3848.00
2023-04-11T08:22:22.031Z,6672.00
2023-04-11T08:23:21.930Z,6636.00
2023-04-11T08:24:21.721Z,6588.00
2023-04-11T08:25:22.692Z,4940.00
2023-04-11T08:26:21.807Z,6256.00
2023-04-11T08:27:23.199Z,4084.00
2023-04-11T08:28:21.679Z,3196.00
2023-04-11T08:29:21.668Z,3008.00
2023-04-11T08:30:21.643Z,6544.00
2023-04-11T08:31:21.722Z,7128.00
2023-04-11T08:32:21.700Z,5920.00
2023-04-11T08:33:21.586Z,5060.00
2023-04-11T08:34:21.626Z,7616.00
2023-04-11T08:35:21.640Z,6468.00
2023-04-11T08:36:21.601Z,7476.00
2023-04-11T08:37:21.636Z,5612.00
2023-04-11T08:38:21.561Z,5344.00
2023-04-11T08:39:21.514Z,4444.00
2023-04-11T08:40:21.505Z,4508.00
2023-04-11T08:41:21.548Z,4332.00
2023-04-11T08:42:21.560Z,5828.00
2023-04-11T08:43:21.834Z,4040.00
2023-04-11T08:44:21.487Z,4964.00
2023-04-11T08:45:21.483Z,5452.00
2023-04-11T08:46:21.627Z,5176.00
2023-04-11T08:47:21.516Z,3804.00
2023-04-11T08:48:21.396Z,4172.00
2023-04-11T08:49:21.495Z,5208.00
2023-04-11T08:50:21.399Z,4880.00
2023-04-11T08:51:21.341Z,3608.00
2023-04-11T08:52:21.387Z,4404.00
2023-04-11T08:53:21.338Z,5588.00
2023-04-11T08:54:21.337Z,6716.00
2023-04-11T08:55:21.429Z,5168.00
2023-04-11T08:56:21.339Z,4764.00
2023-04-11T08:57:21.328Z,3644.00
2023-04-11T08:58:21.306Z,3140.00
2023-04-11T08:59:21.283Z,3788.00
2023-04-11T09:00:21.352Z,5080.00
2023-04-11T09:01:21.344Z,5064.00
2023-04-11T09:02:21.322Z,5324.00
2023-04-11T09:03:21.366Z,5524.00
2023-04-11T09:04:21.223Z,5352.00
2023-04-11T09:05:21.224Z,4528.00
2023-04-11T09:06:21.182Z,7036.00
2023-04-11T09:07:21.194Z,4600.00
2023-04-11T09:08:21.111Z,6696.00
2023-04-11T09:09:21.143Z,3764.00
2023-04-11T09:10:21.329Z,3400.00
2023-04-11T09:11:21.069Z,3828.00
2023-04-11T09:12:21.067Z,3872.00
2023-04-11T09:13:21.076Z,5448.00
2023-04-11T09:14:21.121Z,5984.00
2023-04-11T09:15:21.046Z,5584.00
2023-04-11T09:16:21.089Z,5472.00
2023-04-11T09:17:21.130Z,4536.00
2023-04-11T09:18:21.038Z,5720.00
2023-04-11T09:19:21.079Z,3032.00
2023-04-11T09:20:21.117Z,5408.00
2023-04-11T09:21:21.006Z,6200.00
2023-04-11T09:22:20.932Z,7216.00
2023-04-11T09:23:20.991Z,7344.00
2023-04-11T09:24:20.896Z,5956.00
2023-04-11T09:25:20.914Z,5692.00
2023-04-11T09:26:22.123Z,6116.00
2023-04-11T09:27:20.920Z,5800.00
2023-04-11T09:28:20.891Z,6416.00
2023-04-11T09:29:20.931Z,7008.00
2023-04-11T09:30:20.831Z,6652.00
2023-04-11T09:31:21.212Z,6576.00
2023-04-11T09:32:20.837Z,5004.00
2023-04-11T09:33:20.830Z,5808.00
2023-04-11T09:34:20.781Z,5000.00
2023-04-11T09:35:20.890Z,6772.00
2023-04-11T09:36:20.823Z,6408.00
2023-04-11T09:37:20.744Z,8724.00
2023-04-11T09:38:20.813Z,8156.00
2023-04-11T09:39:20.788Z,6068.00
2023-04-11T09:40:20.745Z,7468.00
2023-04-11T09:41:20.678Z,6332.00
2023-04-11T09:42:20.692Z,5592.00
2023-04-11T09:43:20.789Z,5920.00
2023-04-11T09:44:20.631Z,3968.00
2023-04-11T09:45:20.789Z,3604.00
2023-04-11T09:46:20.818Z,4684.00
2023-04-11T09:47:20.585Z,5916.00
2023-04-11T09:48:22.147Z,6444.00
2023-04-11T09:49:21.635Z,5644.00
2023-04-11T09:50:20.660Z,3448.00
2023-04-11T09:51:35.097Z,5640.00
2023-04-11T09:52:21.584Z,6008.00
2023-04-11T09:53:21.031Z,4208.00
2023-04-11T09:54:20.645Z,6552.00
2023-04-11T09:55:20.514Z,6460.00
2023-04-11T09:56:20.516Z,6252.00
2023-04-11T09:57:20.622Z,5836.00
2023-04-11T09:58:20.524Z,6912.00
2023-04-11T09:59:20.514Z,6064.00
2023-04-11T10:00:20.447Z,4876.00
2023-04-11T10:01:20.532Z,3904.00
2023-04-11T10:02:20.431Z,5768.00
2023-04-11T10:03:20.666Z,3804.00
2023-04-11T10:04:20.631Z,5808.00
2023-04-11T10:05:20.387Z,6488.00
2023-04-11T10:06:20.342Z,6724.00
2023-04-11T10:07:20.338Z,7600.00
2023-04-11T10:08:20.407Z,7892.00
2023-04-11T10:09:20.362Z,7776.00
2023-04-11T10:10:20.473Z,7344.00
2023-04-11T10:11:21.179Z,7024.00
2023-04-11T10:12:20.301Z,4624.00
2023-04-11T10:13:20.248Z,7100.00
2023-04-11T10:14:20.300Z,6888.00
2023-04-11T10:15:20.221Z,4060.00
2023-04-11T10:16:20.209Z,3420.00
2023-04-11T10:17:22.573Z,4568.00
2023-04-11T10:18:20.182Z,5428.00
2023-04-11T10:19:20.329Z,6292.00
2023-04-11T10:20:20.175Z,6216.00
2023-04-11T10:21:20.144Z,6892.00
2023-04-11T10:22:20.202Z,5092.00
2023-04-11T10:23:20.127Z,5124.00
2023-04-11T10:24:20.116Z,4452.00
2023-04-11T10:25:20.104Z,7776.00
2023-04-11T10:26:20.130Z,5412.00
2023-04-11T10:27:20.218Z,5412.00
2023-04-11T10:28:20.071Z,6156.00
2023-04-11T10:29:20.137Z,5436.00
2023-04-11T10:30:20.174Z,8452.00
2023-04-11T10:31:20.122Z,8808.00
2023-04-11T10:32:20.031Z,6036.00
2023-04-11T10:33:23.862Z,5248.00
2023-04-11T10:34:19.955Z,5496.00
2023-04-11T10:35:19.941Z,6588.00
2023-04-11T10:36:22.647Z,7832.00
2023-04-11T10:37:19.923Z,9216.00
2023-04-11T10:38:19.882Z,7056.00
2023-04-11T10:39:19.889Z,5808.00
2023-04-11T10:40:19.939Z,5628.00
2023-04-11T10:41:20.005Z,5332.00
2023-04-11T10:42:20.042Z,7736.00
2023-04-11T10:43:19.870Z,6104.00
2023-04-11T10:44:19.814Z,6076.00
2023-04-11T10:45:19.803Z,8480.00
2023-04-11T10:46:19.865Z,7504.00
2023-04-11T10:47:20.750Z,7112.00
2023-04-11T10:48:20.030Z,7008.00
2023-04-11T10:49:19.785Z,6848.00
2023-04-11T10:50:21.238Z,6884.00
2023-04-11T10:51:19.745Z,7100.00
2023-04-11T10:52:19.747Z,7132.00
2023-04-11T10:53:19.852Z,7108.00
2023-04-11T10:54:19.757Z,6932.00
2023-04-11T10:55:19.681Z,4816.00
2023-04-11T10:56:19.751Z,5360.00
2023-04-11T10:57:19.721Z,5992.00
2023-04-11T10:58:19.841Z,5940.00
2023-04-11T10:59:19.625Z,8196.00
2023-04-11T11:00:19.698Z,5840.00
2023-04-11T11:01:31.475Z,7128.00
2023-04-11T11:02:20.876Z,7644.00
2023-04-11T11:03:19.751Z,7912.00
2023-04-11T11:04:20.139Z,7240.00
2023-04-11T11:05:19.563Z,6788.00
2023-04-11T11:06:19.531Z,6200.00
2023-04-11T11:07:19.542Z,6528.00
2023-04-11T11:08:19.471Z,6276.00
2023-04-11T11:09:19.558Z,7092.00
2023-04-11T11:10:19.486Z,4504.00
2023-04-11T11:11:19.507Z,5084.00
2023-04-11T11:12:19.420Z,4952.00
2023-04-11T11:13:19.494Z,4144.00
2023-04-11T11:14:19.431Z,4020.00
2023-04-11T11:15:19.457Z,3612.00
2023-04-11T11:16:19.391Z,3948.00
2023-04-11T11:17:19.426Z,4600.00
2023-04-11T11:18:19.410Z,4484.00
2023-04-11T11:19:19.354Z,4348.00
2023-04-11T11:20:19.324Z,3996.00
2023-04-11T11:21:24.763Z,3720.00
2023-04-11T11:22:20.297Z,3816.00
2023-04-11T11:23:19.578Z,3860.00
2023-04-11T11:24:24.619Z,4632.00
2023-04-11T11:25:20.942Z,5852.00
2023-04-11T11:26:27.054Z,6424.00
2023-04-11T11:27:19.244Z,9776.00
2023-04-11T11:28:19.241Z,9320.00
2023-04-11T11:29:19.206Z,8648.00
2023-04-11T11:30:19.185Z,8616.00
2023-04-11T11:31:19.292Z,8396.00
2023-04-11T11:32:19.225Z,9052.00
2023-04-11T11:33:19.204Z,9560.00
2023-04-11T11:34:23.668Z,10096.00
2023-04-11T11:35:19.123Z,10164.00
2023-04-11T11:36:19.307Z,9704.00
2023-04-11T11:37:19.212Z,9324.00
2023-04-11T11:38:19.251Z,9336.00
2023-04-11T11:39:21.123Z,9572.00
2023-04-11T11:40:19.266Z,9692.00
2023-04-11T11:41:19.191Z,9456.00
2023-04-11T11:42:19.065Z,9172.00
2023-04-11T11:43:19.142Z,5844.00
2023-04-11T11:44:19.199Z,5872.00
2023-04-11T11:45:19.322Z,8572.00
2023-04-11T11:46:19.040Z,5672.00
2023-04-11T11:47:19.130Z,6688.00
2023-04-11T11:48:18.928Z,5820.00
2023-04-11T11:49:18.977Z,5684.00
2023-04-11T11:50:18.965Z,5836.00
2023-04-11T11:51:18.944Z,5900.00
2023-04-11T11:52:18.998Z,5736.00
2023-04-11T11:53:19.110Z,5604.00
2023-04-11T11:54:19.062Z,5708.00
2023-04-11T11:55:18.851Z,5684.00
2023-04-11T11:56:18.818Z,5648.00
2023-04-11T11:57:18.815Z,6736.00
2023-04-11T11:58:18.912Z,10136.00
2023-04-11T11:59:18.833Z,6160.00
2023-04-11T12:00:18.885Z,6016.00
2023-04-11T12:01:18.798Z,5028.00
2023-04-11T12:02:18.995Z,4244.00
2023-04-11T12:03:18.919Z,8768.00
2023-04-11T12:04:18.909Z,9604.00
2023-04-11T12:05:18.870Z,10196.00
2023-04-11T12:06:18.768Z,6028.00
2023-04-11T12:07:20.098Z,10096.00
2023-04-11T12:08:18.659Z,5264.00
2023-04-11T12:09:18.720Z,9232.00
2023-04-11T12:10:18.696Z,9472.00
2023-04-11T12:11:18.654Z,10516.00
2023-04-11T12:12:18.674Z,11132.00
2023-04-11T12:13:18.641Z,11392.00
2023-04-11T12:14:18.783Z,11252.00
2023-04-11T12:15:18.640Z,10508.00
2023-04-11T12:16:22.736Z,10216.00
2023-04-11T12:17:19.040Z,10300.00
2023-04-11T12:18:18.524Z,10224.00
2023-04-11T12:19:18.885Z,9884.00
2023-04-11T12:20:19.193Z,9344.00
2023-04-11T12:21:18.502Z,9376.00
2023-04-11T12:22:18.551Z,9768.00
2023-04-11T12:23:18.562Z,10360.00
2023-04-11T12:24:18.440Z,10408.00
2023-04-11T12:25:18.622Z,10176.00
2023-04-11T12:26:26.054Z,10476.00
2023-04-11T12:27:18.441Z,7472.00
2023-04-11T12:28:18.506Z,10916.00
2023-04-11T12:29:18.580Z,8188.00
2023-04-11T12:30:18.434Z,10680.00
2023-04-11T12:31:18.461Z,10244.00
2023-04-11T12:32:18.330Z,10180.00
2023-04-11T12:33:18.505Z,9688.00